sensor_id;sensor_type;location;lat;lon;timestamp;pressure;altitude;pressure_sealevel;temperature;humidity
2268;BME280;11052;43.338;25.502;2023-05-23T00:00:20;100345.03;;;13.41;100.00
2268;BME280;11052;43.338;25.502;2023-05-23T00:02:48;100344.19;;;13.41;100.00
2268;BME280;11052;43.338;25.502;2023-05-23T00:05:15;100346.88;;;13.39;100.00
2268;BME280;11052;43.338;25.502;2023-05-23T00:07:43;100356.44;;;13.39;100.00
2268;BME280;11052;43.338;25.502;2023-05-23T00:10:10;100353.81;;;13.39;100.00
2268;BME280;11052;43.338;25.502;2023-05-23T00:12:39;100351.53;;;13.31;100.00
2268;BME280;11052;43.338;25.502;2023-05-23T00:15:07;100351.22;;;13.17;100.00
2268;BME280;11052;43.338;25.502;2023-05-23T00:17:35;100349.78;;;12.88;100.00
2268;BME280;11052;43.338;25.502;2023-05-23T00:20:03;100350.78;;;12.84;100.00
2268;BME280;11052;43.338;25.502;2023-05-23T00:22:30;100356.63;;;12.91;100.00
2268;BME280;11052;43.338;25.502;2023-05-23T00:24:57;100354.84;;;12.91;100.00
2268;BME280;11052;43.338;25.502;2023-05-23T00:27:26;100357.22;;;12.97;100.00
2268;BME280;11052;43.338;25.502;2023-05-23T00:29:55;100350.38;;;12.95;100.00
2268;BME280;11052;43.338;25.502;2023-05-23T00:32:22;100343.38;;;12.97;100.00
2268;BME280;11052;43.338;25.502;2023-05-23T00:34:49;100346.88;;;12.96;100.00
2268;BME280;11052;43.338;25.502;2023-05-23T00:37:18;100347.13;;;12.90;100.00
2268;BME280;11052;43.338;25.502;2023-05-23T00:39:46;100348.81;;;12.91;100.00
2268;BME280;11052;43.338;25.502;2023-05-23T00:42:14;100348.94;;;12.88;100.00
2268;BME280;11052;43.338;25.502;2023-05-23T00:44:41;100350.75;;;12.86;100.00
2268;BME280;11052;43.338;25.502;2023-05-23T00:47:09;100343.06;;;12.83;100.00
2268;BME280;11052;43.338;25.502;2023-05-23T00:49:38;100354.38;;;12.82;100.00
2268;BME280;11052;43.338;25.502;2023-05-23T00:52:06;100350.78;;;12.84;100.00
2268;BME280;11052;43.338;25.502;2023-05-23T00:54:33;100347.41;;;12.82;100.00
2268;BME280;11052;43.338;25.502;2023-05-23T00:57:02;100343.09;;;12.81;100.00
2268;BME280;11052;43.338;25.502;2023-05-23T00:59:30;100347.41;;;12.82;100.00
2268;BME280;11052;43.338;25.502;2023-05-23T01:01:58;100346.78;;;12.75;100.00
2268;BME280;11052;43.338;25.502;2023-05-23T01:04:28;100348.38;;;12.79;100.00
2268;BME280;11052;43.338;25.502;2023-05-23T01:06:58;100355.44;;;12.76;100.00
2268;BME280;11052;43.338;25.502;2023-05-23T01:09:27;100351.94;;;12.77;100.00
2268;BME280;11052;43.338;25.502;2023-05-23T01:12:02;100342.50;;;12.74;100.00
2268;BME280;11052;43.338;25.502;2023-05-23T01:14:36;100349.44;;;12.74;100.00
2268;BME280;11052;43.338;25.502;2023-05-23T01:17:10;100347.81;;;12.71;100.00
2268;BME280;11052;43.338;25.502;2023-05-23T01:19:57;100349.00;;;12.63;100.00
2268;BME280;11052;43.338;25.502;2023-05-23T01:22:35;100349.53;;;12.49;100.00
2268;BME280;11052;43.338;25.502;2023-05-23T01:25:10;100356.59;;;12.45;100.00
2268;BME280;11052;43.338;25.502;2023-05-23T01:27:46;100346.25;;;12.44;100.00
2268;BME280;11052;43.338;25.502;2023-05-23T01:30:17;100352.22;;;12.46;100.00
2268;BME280;11052;43.338;25.502;2023-05-23T01:32:45;100343.47;;;12.48;100.00
2268;BME280;11052;43.338;25.502;2023-05-23T01:35:17;100345.91;;;12.53;100.00
2268;BME280;11052;43.338;25.502;2023-05-23T01:37:47;100351.09;;;12.53;100.00
2268;BME280;11052;43.338;25.502;2023-05-23T01:40:14;100347.66;;;12.53;100.00
2268;BME280;11052;43.338;25.502;2023-05-23T01:42:41;100347.72;;;12.51;100.00
2268;BME280;11052;43.338;25.502;2023-05-23T01:45:11;100352.97;;;12.50;100.00
2268;BME280;11052;43.338;25.502;2023-05-23T01:47:39;100349.53;;;12.49;100.00
2268;BME280;11052;43.338;25.502;2023-05-23T01:50:07;100347.88;;;12.46;100.00
2268;BME280;11052;43.338;25.502;2023-05-23T01:52:35;100346.34;;;12.41;100.00
2268;BME280;11052;43.338;25.502;2023-05-23T01:55:06;100347.25;;;12.40;100.00
2268;BME280;11052;43.338;25.502;2023-05-23T01:57:35;100354.88;;;12.44;100.00
2268;BME280;11052;43.338;25.502;2023-05-23T02:00:03;100354.94;;;12.43;100.00
2268;BME280;11052;43.338;25.502;2023-05-23T02:02:33;100359.41;;;12.39;100.00
2268;BME280;11052;43.338;25.502;2023-05-23T02:05:00;100358.50;;;12.40;100.00
2268;BME280;11052;43.338;25.502;2023-05-23T02:07:27;100355.16;;;12.37;100.00
2268;BME280;11052;43.338;25.502;2023-05-23T02:09:54;100356.97;;;12.35;100.00
2268;BME280;11052;43.338;25.502;2023-05-23T02:12:21;100358.00;;;12.31;100.00
2268;BME280;11052;43.338;25.502;2023-05-23T02:14:49;100361.59;;;12.27;100.00
2268;BME280;11052;43.338;25.502;2023-05-23T02:17:16;100358.25;;;12.23;100.00
2268;BME280;11052;43.338;25.502;2023-05-23T02:19:45;100357.25;;;12.27;100.00
2268;BME280;11052;43.338;25.502;2023-05-23T02:22:12;100365.00;;;12.29;100.00
2268;BME280;11052;43.338;25.502;2023-05-23T02:24:39;100367.66;;;12.27;100.00
2268;BME280;11052;43.338;25.502;2023-05-23T02:27:06;100365.31;;;12.20;100.00
2268;BME280;11052;43.338;25.502;2023-05-23T02:29:34;100370.25;;;12.04;100.00
2268;BME280;11052;43.338;25.502;2023-05-23T02:32:01;100365.31;;;11.96;100.00
2268;BME280;11052;43.338;25.502;2023-05-23T02:34:28;100373.09;;;11.96;100.00
2268;BME280;11052;43.338;25.502;2023-05-23T02:36:57;100366.94;;;11.99;100.00
2268;BME280;11052;43.338;25.502;2023-05-23T02:39:24;100376.44;;;12.00;100.00
2268;BME280;11052;43.338;25.502;2023-05-23T02:41:51;100376.19;;;12.07;100.00
2268;BME280;11052;43.338;25.502;2023-05-23T02:44:18;100373.59;;;12.07;100.00
2268;BME280;11052;43.338;25.502;2023-05-23T02:46:45;100378.13;;;12.01;100.00
2268;BME280;11052;43.338;25.502;2023-05-23T02:49:12;100379.31;;;11.92;100.00
2268;BME280;11052;43.338;25.502;2023-05-23T02:51:39;100381.00;;;11.93;100.00
2268;BME280;11052;43.338;25.502;2023-05-23T02:54:07;100385.50;;;11.88;100.00
2268;BME280;11052;43.338;25.502;2023-05-23T02:56:34;100385.28;;;11.94;100.00
2268;BME280;11052;43.338;25.502;2023-05-23T02:59:02;100386.41;;;11.87;100.00
2268;BME280;11052;43.338;25.502;2023-05-23T03:01:29;100385.28;;;11.94;100.00
2268;BME280;11052;43.338;25.502;2023-05-23T03:03:56;100390.13;;;12.05;100.00
2268;BME280;11052;43.338;25.502;2023-05-23T03:06:23;100389.00;;;12.12;100.00
2268;BME280;11052;43.338;25.502;2023-05-23T03:08:52;100389.13;;;12.09;100.00
2268;BME280;11052;43.338;25.502;2023-05-23T03:11:20;100385.84;;;12.04;100.00
2268;BME280;11052;43.338;25.502;2023-05-23T03:13:47;100387.38;;;12.09;100.00
2268;BME280;11052;43.338;25.502;2023-05-23T03:16:15;100375.78;;;12.18;100.00
2268;BME280;11052;43.338;25.502;2023-05-23T03:18:42;100385.03;;;12.25;100.00
2268;BME280;11052;43.338;25.502;2023-05-23T03:21:09;100389.19;;;12.31;100.00
2268;BME280;11052;43.338;25.502;2023-05-23T03:23:36;100389.81;;;12.37;100.00
2268;BME280;11052;43.338;25.502;2023-05-23T03:26:03;100380.94;;;12.43;100.00
2268;BME280;11052;43.338;25.502;2023-05-23T03:28:32;100388.75;;;12.43;100.00
2268;BME280;11052;43.338;25.502;2023-05-23T03:30:59;100389.25;;;12.53;100.00
2268;BME280;11052;43.338;25.502;2023-05-23T03:33:26;100395.94;;;12.60;100.00
2268;BME280;11052;43.338;25.502;2023-05-23T03:35:54;100394.81;;;12.67;100.00
2268;BME280;11052;43.338;25.502;2023-05-23T03:38:22;100394.81;;;12.67;100.00
2268;BME280;11052;43.338;25.502;2023-05-23T03:40:49;100394.81;;;12.67;100.00
2268;BME280;11052;43.338;25.502;2023-05-23T03:43:16;100392.03;;;12.71;100.00
2268;BME280;11052;43.338;25.502;2023-05-23T03:45:44;100398.47;;;12.61;100.00
2268;BME280;11052;43.338;25.502;2023-05-23T03:48:11;100399.09;;;12.68;100.00
2268;BME280;11052;43.338;25.502;2023-05-23T03:50:39;100400.22;;;12.84;100.00
2268;BME280;11052;43.338;25.502;2023-05-23T03:53:06;100396.94;;;13.01;100.00
2268;BME280;11052;43.338;25.502;2023-05-23T03:55:33;100404.16;;;13.18;100.00
2268;BME280;11052;43.338;25.502;2023-05-23T03:58:00;100396.88;;;13.26;100.00
2268;BME280;11052;43.338;25.502;2023-05-23T04:00:27;100409.06;;;13.25;100.00
2268;BME280;11052;43.338;25.502;2023-05-23T04:02:56;100409.16;;;13.44;100.00
2268;BME280;11052;43.338;25.502;2023-05-23T04:05:23;100403.06;;;13.45;100.00
2268;BME280;11052;43.338;25.502;2023-05-23T04:07:50;100407.59;;;13.62;100.00
2268;BME280;11052;43.338;25.502;2023-05-23T04:10:18;100413.75;;;13.81;100.00
2268;BME280;11052;43.338;25.502;2023-05-23T04:12:45;100409.50;;;13.99;100.00
2268;BME280;11052;43.338;25.502;2023-05-23T04:15:12;100412.50;;;14.10;100.00
2268;BME280;11052;43.338;25.502;2023-05-23T04:17:39;100403.53;;;14.36;100.00
2268;BME280;11052;43.338;25.502;2023-05-23T04:20:10;100406.22;;;14.55;100.00
2268;BME280;11052;43.338;25.502;2023-05-23T04:22:37;100409.66;;;14.74;100.00
2268;BME280;11052;43.338;25.502;2023-05-23T04:25:05;100405.91;;;15.17;100.00
2268;BME280;11052;43.338;25.502;2023-05-23T04:27:33;100409.28;;;15.57;100.00
2268;BME280;11052;43.338;25.502;2023-05-23T04:30:00;100411.50;;;15.82;100.00
2268;BME280;11052;43.338;25.502;2023-05-23T04:32:28;100414.34;;;15.77;100.00
2268;BME280;11052;43.338;25.502;2023-05-23T04:34:55;100414.88;;;15.84;100.00
2268;BME280;11052;43.338;25.502;2023-05-23T04:37:24;100412.81;;;15.90;100.00
2268;BME280;11052;43.338;25.502;2023-05-23T04:39:51;100415.19;;;16.12;100.00
2268;BME280;11052;43.338;25.502;2023-05-23T04:42:19;100409.78;;;16.32;100.00
2268;BME280;11052;43.338;25.502;2023-05-23T04:44:50;100415.22;;;16.45;100.00
2268;BME280;11052;43.338;25.502;2023-05-23T04:47:17;100415.78;;;16.50;100.00
2268;BME280;11052;43.338;25.502;2023-05-23T04:49:44;100416.78;;;16.48;100.00
2268;BME280;11052;43.338;25.502;2023-05-23T04:52:12;100421.78;;;16.52;100.00
2268;BME280;11052;43.338;25.502;2023-05-23T04:54:41;100409.72;;;16.50;100.00
2268;BME280;11052;43.338;25.502;2023-05-23T04:57:09;100412.84;;;16.56;100.00
2268;BME280;11052;43.338;25.502;2023-05-23T04:59:37;100416.69;;;16.66;100.00
2268;BME280;11052;43.338;25.502;2023-05-23T05:02:05;100416.56;;;17.01;100.00
2268;BME280;11052;43.338;25.502;2023-05-23T05:04:33;100414.38;;;17.09;100.00
2268;BME280;11052;43.338;25.502;2023-05-23T05:07:00;100417.41;;;17.33;100.00
2268;BME280;11052;43.338;25.502;2023-05-23T05:09:28;100409.91;;;17.57;100.00
2268;BME280;11052;43.338;25.502;2023-05-23T05:11:58;100413.38;;;17.73;100.00
2268;BME280;11052;43.338;25.502;2023-05-23T05:14:25;100416.81;;;17.89;100.00
2268;BME280;11052;43.338;25.502;2023-05-23T05:16:52;100408.03;;;18.05;100.00
2268;BME280;11052;43.338;25.502;2023-05-23T05:19:22;100420.78;;;18.11;100.00
2268;BME280;11052;43.338;25.502;2023-05-23T05:21:49;100421.28;;;18.17;100.00
2268;BME280;11052;43.338;25.502;2023-05-23T05:24:17;100420.06;;;18.37;100.00
2268;BME280;11052;43.338;25.502;2023-05-23T05:26:45;100419.44;;;18.62;100.00
2268;BME280;11052;43.338;25.502;2023-05-23T05:29:16;100419.91;;;18.83;100.00
2268;BME280;11052;43.338;25.502;2023-05-23T05:31:43;100424.88;;;19.14;100.00
2268;BME280;11052;43.338;25.502;2023-05-23T05:34:11;100425.88;;;19.67;100.00
2268;BME280;11052;43.338;25.502;2023-05-23T05:36:39;100425.63;;;20.10;100.00
2268;BME280;11052;43.338;25.502;2023-05-23T05:39:10;100423.78;;;20.63;100.00
2268;BME280;11052;43.338;25.502;2023-05-23T05:41:38;100429.34;;;21.07;100.00
2268;BME280;11052;43.338;25.502;2023-05-23T05:44:06;100431.34;;;21.53;100.00
2268;BME280;11052;43.338;25.502;2023-05-23T05:46:34;100432.06;;;21.55;100.00
2268;BME280;11052;43.338;25.502;2023-05-23T05:49:02;100437.75;;;21.73;100.00
2268;BME280;11052;43.338;25.502;2023-05-23T05:51:29;100434.69;;;21.55;100.00
2268;BME280;11052;43.338;25.502;2023-05-23T05:53:56;100430.16;;;21.33;100.00
2268;BME280;11052;43.338;25.502;2023-05-23T05:56:23;100437.91;;;21.47;100.00
2268;BME280;11052;43.338;25.502;2023-05-23T05:58:50;100437.56;;;22.11;100.00
2268;BME280;11052;43.338;25.502;2023-05-23T06:01:17;100437.72;;;22.65;100.00
2268;BME280;11052;43.338;25.502;2023-05-23T06:03:46;100439.56;;;22.87;100.00
2268;BME280;11052;43.338;25.502;2023-05-23T06:06:13;100434.47;;;23.17;100.00
2268;BME280;11052;43.338;25.502;2023-05-23T06:08:41;100431.47;;;23.22;100.00
2268;BME280;11052;43.338;25.502;2023-05-23T06:11:08;100428.41;;;23.38;100.00
2268;BME280;11052;43.338;25.502;2023-05-23T06:13:36;100418.94;;;23.24;100.00
2268;BME280;11052;43.338;25.502;2023-05-23T06:16:04;100425.38;;;23.53;100.00
2268;BME280;11052;43.338;25.502;2023-05-23T06:18:31;100415.78;;;23.73;100.00
2268;BME280;11052;43.338;25.502;2023-05-23T06:21:00;100423.06;;;23.60;100.00
2268;BME280;11052;43.338;25.502;2023-05-23T06:23:27;100421.78;;;23.75;100.00
2268;BME280;11052;43.338;25.502;2023-05-23T06:25:56;100427.50;;;23.92;100.00
2268;BME280;11052;43.338;25.502;2023-05-23T06:28:23;100423.16;;;23.91;100.00
2268;BME280;11052;43.338;25.502;2023-05-23T06:30:50;100427.09;;;23.75;100.00
2268;BME280;11052;43.338;25.502;2023-05-23T06:33:18;100434.22;;;23.96;100.00
2268;BME280;11052;43.338;25.502;2023-05-23T06:35:45;100430.94;;;23.71;100.00
2268;BME280;11052;43.338;25.502;2023-05-23T06:38:14;100426.28;;;23.32;100.00
2268;BME280;11052;43.338;25.502;2023-05-23T06:40:41;100432.09;;;23.58;100.00
2268;BME280;11052;43.338;25.502;2023-05-23T06:43:08;100429.59;;;23.77;100.00
2268;BME280;11052;43.338;25.502;2023-05-23T06:45:35;100435.56;;;23.47;100.00
2268;BME280;11052;43.338;25.502;2023-05-23T06:48:03;100423.25;;;23.36;100.00
2268;BME280;11052;43.338;25.502;2023-05-23T06:50:30;100423.69;;;23.09;100.00
2268;BME280;11052;43.338;25.502;2023-05-23T06:52:57;100423.44;;;23.56;100.00
2268;BME280;11052;43.338;25.502;2023-05-23T06:55:26;100414.44;;;24.21;100.00
2268;BME280;11052;43.338;25.502;2023-05-23T06:57:53;100413.78;;;24.28;100.00
2268;BME280;11052;43.338;25.502;2023-05-23T07:00:20;100412.50;;;24.83;100.00
2268;BME280;11052;43.338;25.502;2023-05-23T07:02:47;100416.41;;;25.58;100.00
2268;BME280;11052;43.338;25.502;2023-05-23T07:05:15;100418.69;;;25.82;100.00
2268;BME280;11052;43.338;25.502;2023-05-23T07:07:42;100416.44;;;25.97;100.00
2268;BME280;11052;43.338;25.502;2023-05-23T07:10:10;100422.88;;;25.85;100.00
2268;BME280;11052;43.338;25.502;2023-05-23T07:12:39;100423.53;;;26.06;100.00
2268;BME280;11052;43.338;25.502;2023-05-23T07:15:07;100414.81;;;26.23;100.00
2268;BME280;11052;43.338;25.502;2023-05-23T07:17:35;100407.66;;;25.67;100.00
2268;BME280;11052;43.338;25.502;2023-05-23T07:20:03;100409.31;;;25.88;100.00
2268;BME280;11052;43.338;25.502;2023-05-23T07:22:31;100418.16;;;26.25;100.00
2268;BME280;11052;43.338;25.502;2023-05-23T07:24:58;100409.75;;;26.49;100.00
2268;BME280;11052;43.338;25.502;2023-05-23T07:27:26;100415.06;;;26.49;100.00
2268;BME280;11052;43.338;25.502;2023-05-23T07:29:55;100405.84;;;26.43;91.73
2268;BME280;11052;43.338;25.502;2023-05-23T07:32:22;100406.66;;;26.54;85.95
2268;BME280;11052;43.338;25.502;2023-05-23T07:34:49;100396.00;;;26.54;97.04
2268;BME280;11052;43.338;25.502;2023-05-23T07:37:17;100397.94;;;26.61;86.70
2268;BME280;11052;43.338;25.502;2023-05-23T07:39:44;100392.75;;;26.13;91.08
2268;BME280;11052;43.338;25.502;2023-05-23T07:42:11;100395.28;;;26.61;92.83
2268;BME280;11052;43.338;25.502;2023-05-23T07:44:40;100397.97;;;27.06;86.23
2268;BME280;11052;43.338;25.502;2023-05-23T07:47:09;100392.81;;;27.05;91.15
2268;BME280;11052;43.338;25.502;2023-05-23T07:49:36;100396.72;;;27.46;86.89
2268;BME280;11052;43.338;25.502;2023-05-23T07:52:03;100390.63;;;27.18;84.52
2268;BME280;11052;43.338;25.502;2023-05-23T07:54:31;100395.94;;;26.91;82.55
2268;BME280;11052;43.338;25.502;2023-05-23T07:56:58;100392.69;;;27.24;85.78
2268;BME280;11052;43.338;25.502;2023-05-23T07:59:25;100388.84;;;27.72;78.45
2268;BME280;11052;43.338;25.502;2023-05-23T08:01:54;100392.75;;;27.86;75.06
2268;BME280;11052;43.338;25.502;2023-05-23T08:04:23;100389.44;;;27.92;73.74
2268;BME280;11052;43.338;25.502;2023-05-23T08:06:50;100385.00;;;27.21;72.98
2268;BME280;11052;43.338;25.502;2023-05-23T08:09:18;100384.97;;;27.03;76.11
2268;BME280;11052;43.338;25.502;2023-05-23T08:11:45;100385.28;;;27.00;76.26
2268;BME280;11052;43.338;25.502;2023-05-23T08:14:12;100381.31;;;27.04;74.10
2268;BME280;11052;43.338;25.502;2023-05-23T08:16:39;100377.59;;;26.97;80.63
2268;BME280;11052;43.338;25.502;2023-05-23T08:19:07;100376.97;;;26.86;80.01
2268;BME280;11052;43.338;25.502;2023-05-23T08:21:36;100371.28;;;26.98;76.91
2268;BME280;11052;43.338;25.502;2023-05-23T08:24:03;100378.00;;;27.38;77.65
2268;BME280;11052;43.338;25.502;2023-05-23T08:26:30;100374.81;;;27.70;79.14
2268;BME280;11052;43.338;25.502;2023-05-23T08:28:59;100375.19;;;27.39;73.20
2268;BME280;11052;43.338;25.502;2023-05-23T08:31:28;100366.81;;;26.71;75.62
2268;BME280;11052;43.338;25.502;2023-05-23T08:33:55;100365.81;;;27.00;74.39
2268;BME280;11052;43.338;25.502;2023-05-23T08:36:22;100367.22;;;26.94;73.71
2268;BME280;11052;43.338;25.502;2023-05-23T08:38:51;100363.50;;;26.60;69.01
2268;BME280;11052;43.338;25.502;2023-05-23T08:41:19;100357.69;;;26.92;75.03
2268;BME280;11052;43.338;25.502;2023-05-23T08:43:47;100356.31;;;26.97;69.65
2268;BME280;11052;43.338;25.502;2023-05-23T08:46:15;100351.84;;;26.88;72.40
2268;BME280;11052;43.338;25.502;2023-05-23T08:48:43;100360.28;;;27.11;71.85
2268;BME280;11052;43.338;25.502;2023-05-23T08:51:16;100357.78;;;27.63;71.53
2268;BME280;11052;43.338;25.502;2023-05-23T08:53:45;100353.50;;;27.96;67.85
2268;BME280;11052;43.338;25.502;2023-05-23T08:56:15;100355.84;;;27.99;65.75
2268;BME280;11052;43.338;25.502;2023-05-23T08:58:42;100364.59;;;28.09;66.73
2268;BME280;11052;43.338;25.502;2023-05-23T09:01:10;100366.69;;;28.23;66.69
2268;BME280;11052;43.338;25.502;2023-05-23T09:03:39;100366.53;;;28.25;64.92
2268;BME280;11052;43.338;25.502;2023-05-23T09:06:07;100352.50;;;27.97;61.95
2268;BME280;11052;43.338;25.502;2023-05-23T09:08:35;100356.16;;;27.52;67.76
2268;BME280;11052;43.338;25.502;2023-05-23T09:11:04;100349.47;;;27.92;70.40
2268;BME280;11052;43.338;25.502;2023-05-23T09:13:34;100347.88;;;27.73;64.30
2268;BME280;11052;43.338;25.502;2023-05-23T09:16:04;100352.03;;;27.75;66.92
2268;BME280;11052;43.338;25.502;2023-05-23T09:18:33;100355.28;;;28.13;65.96
2268;BME280;11052;43.338;25.502;2023-05-23T09:21:02;100338.69;;;27.67;66.88
2268;BME280;11052;43.338;25.502;2023-05-23T09:23:30;100355.03;;;27.37;67.93
2268;BME280;11052;43.338;25.502;2023-05-23T09:26:01;100354.72;;;27.40;71.53
2268;BME280;11052;43.338;25.502;2023-05-23T09:28:29;100341.72;;;27.55;68.15
2268;BME280;11052;43.338;25.502;2023-05-23T09:31:01;100339.50;;;27.68;68.49
2268;BME280;11052;43.338;25.502;2023-05-23T09:33:34;100348.06;;;27.80;65.97
2268;BME280;11052;43.338;25.502;2023-05-23T09:36:03;100342.22;;;28.28;66.91
2268;BME280;11052;43.338;25.502;2023-05-23T09:38:31;100340.47;;;28.45;64.76
2268;BME280;11052;43.338;25.502;2023-05-23T09:40:58;100335.56;;;28.74;64.08
2268;BME280;11052;43.338;25.502;2023-05-23T09:43:27;100340.72;;;28.25;63.11
2268;BME280;11052;43.338;25.502;2023-05-23T09:45:54;100333.63;;;28.42;62.98
2268;BME280;11052;43.338;25.502;2023-05-23T09:48:31;100339.72;;;28.26;59.88
2268;BME280;11052;43.338;25.502;2023-05-23T09:51:03;100338.94;;;28.34;59.11
2268;BME280;11052;43.338;25.502;2023-05-23T09:53:31;100331.88;;;27.99;63.92
2268;BME280;11052;43.338;25.502;2023-05-23T09:55:58;100327.41;;;28.07;62.30
2268;BME280;11052;43.338;25.502;2023-05-23T09:58:27;100326.31;;;28.18;61.26
2268;BME280;11052;43.338;25.502;2023-05-23T10:00:55;100323.31;;;27.87;63.98
2268;BME280;11052;43.338;25.502;2023-05-23T10:03:38;100319.09;;;28.11;62.20
2268;BME280;11052;43.338;25.502;2023-05-23T10:06:09;100322.41;;;28.04;62.88
2268;BME280;11052;43.338;25.502;2023-05-23T10:08:42;100319.25;;;28.35;65.64
2268;BME280;11052;43.338;25.502;2023-05-23T10:14:16;100315.63;;;27.84;64.14
2268;BME280;11052;43.338;25.502;2023-05-23T10:16:52;100312.69;;;27.95;63.99
2268;BME280;11052;43.338;25.502;2023-05-23T10:19:26;100314.34;;;28.56;64.98
2268;BME280;11052;43.338;25.502;2023-05-23T10:21:57;100308.25;;;28.30;59.62
2268;BME280;11052;43.338;25.502;2023-05-23T10:24:25;100301.44;;;28.35;63.15
2268;BME280;11052;43.338;25.502;2023-05-23T10:26:53;100292.63;;;28.09;63.91
2268;BME280;11052;43.338;25.502;2023-05-23T10:29:20;100303.22;;;27.67;63.60
2268;BME280;11052;43.338;25.502;2023-05-23T10:31:49;100297.59;;;28.04;61.55
2268;BME280;11052;43.338;25.502;2023-05-23T10:34:24;100301.13;;;28.38;61.66
2268;BME280;11052;43.338;25.502;2023-05-23T10:36:58;100304.78;;;28.37;58.08
2268;BME280;11052;43.338;25.502;2023-05-23T10:39:50;100297.09;;;28.93;57.92
2268;BME280;11052;43.338;25.502;2023-05-23T10:42:30;100290.53;;;28.71;60.75
2268;BME280;11052;43.338;25.502;2023-05-23T10:45:19;100291.75;;;28.85;57.36
2268;BME280;11052;43.338;25.502;2023-05-23T10:47:47;100289.97;;;28.43;59.93
2268;BME280;11052;43.338;25.502;2023-05-23T10:50:29;100291.13;;;29.07;62.26
2268;BME280;11052;43.338;25.502;2023-05-23T10:52:58;100290.47;;;29.21;63.12
2268;BME280;11052;43.338;25.502;2023-05-23T10:55:31;100279.59;;;29.15;58.14
2268;BME280;11052;43.338;25.502;2023-05-23T10:58:14;100281.66;;;29.45;59.00
2268;BME280;11052;43.338;25.502;2023-05-23T11:00:50;100282.28;;;29.39;56.72
2268;BME280;11052;43.338;25.502;2023-05-23T11:03:17;100273.59;;;29.37;55.97
2268;BME280;11052;43.338;25.502;2023-05-23T11:05:51;100283.28;;;29.38;57.98
2268;BME280;11052;43.338;25.502;2023-05-23T11:08:19;100282.63;;;29.28;53.85
2268;BME280;11052;43.338;25.502;2023-05-23T11:10:53;100283.78;;;29.50;53.30
2268;BME280;11052;43.338;25.502;2023-05-23T11:13:21;100278.13;;;29.45;53.50
2268;BME280;11052;43.338;25.502;2023-05-23T11:15:49;100270.94;;;29.13;55.76
2268;BME280;11052;43.338;25.502;2023-05-23T11:18:21;100280.69;;;28.80;55.42
2268;BME280;11052;43.338;25.502;2023-05-23T11:20:52;100276.00;;;28.65;55.65
2268;BME280;11052;43.338;25.502;2023-05-23T11:23:20;100269.00;;;28.72;56.85
2268;BME280;11052;43.338;25.502;2023-05-23T11:25:48;100270.69;;;28.73;54.82
2268;BME280;11052;43.338;25.502;2023-05-23T11:28:16;100265.94;;;29.10;58.37
2268;BME280;11052;43.338;25.502;2023-05-23T11:30:46;100259.84;;;28.59;55.51
2268;BME280;11052;43.338;25.502;2023-05-23T11:33:15;100256.16;;;28.68;56.29
2268;BME280;11052;43.338;25.502;2023-05-23T11:35:44;100251.56;;;28.28;53.96
2268;BME280;11052;43.338;25.502;2023-05-23T11:38:14;100252.91;;;27.98;57.92
2268;BME280;11052;43.338;25.502;2023-05-23T11:40:42;100257.00;;;27.84;56.56
2268;BME280;11052;43.338;25.502;2023-05-23T11:43:10;100255.47;;;27.82;57.10
2268;BME280;11052;43.338;25.502;2023-05-23T11:45:39;100254.38;;;27.92;57.46
2268;BME280;11052;43.338;25.502;2023-05-23T11:48:07;100242.72;;;27.93;57.47
2268;BME280;11052;43.338;25.502;2023-05-23T11:50:47;100242.00;;;28.17;61.34
2268;BME280;11052;43.338;25.502;2023-05-23T11:53:16;100237.28;;;28.45;57.57
2268;BME280;11052;43.338;25.502;2023-05-23T11:55:49;100243.28;;;28.39;56.81
2268;BME280;11052;43.338;25.502;2023-05-23T11:58:20;100233.47;;;28.48;57.86
2268;BME280;11052;43.338;25.502;2023-05-23T12:00:47;100239.16;;;28.69;61.44
2268;BME280;11052;43.338;25.502;2023-05-23T12:03:14;100239.97;;;28.45;58.93
2268;BME280;11052;43.338;25.502;2023-05-23T12:05:42;100230.03;;;28.21;56.58
2268;BME280;11052;43.338;25.502;2023-05-23T12:08:11;100236.84;;;27.82;59.92
2268;BME280;11052;43.338;25.502;2023-05-23T12:10:50;100236.91;;;27.20;63.72
2268;BME280;11052;43.338;25.502;2023-05-23T12:13:18;100244.47;;;27.07;64.48
2268;BME280;11052;43.338;25.502;2023-05-23T12:15:48;100244.53;;;26.62;67.46
2268;BME280;11052;43.338;25.502;2023-05-23T12:18:15;100242.69;;;26.62;69.95
2268;BME280;11052;43.338;25.502;2023-05-23T12:20:42;100240.25;;;26.51;67.98
2268;BME280;11052;43.338;25.502;2023-05-23T12:23:17;100243.41;;;26.37;65.52
2268;BME280;11052;43.338;25.502;2023-05-23T12:25:50;100233.09;;;26.24;67.71
2268;BME280;11052;43.338;25.502;2023-05-23T12:28:18;100242.44;;;26.01;69.25
2268;BME280;11052;43.338;25.502;2023-05-23T12:30:45;100233.38;;;25.57;71.80
2268;BME280;11052;43.338;25.502;2023-05-23T12:33:13;100232.72;;;25.26;71.58
2268;BME280;11052;43.338;25.502;2023-05-23T12:35:42;100225.91;;;24.94;73.89
2268;BME280;11052;43.338;25.502;2023-05-23T12:38:14;100225.75;;;24.86;71.75
2268;BME280;11052;43.338;25.502;2023-05-23T12:40:42;100222.81;;;24.60;71.96
2268;BME280;11052;43.338;25.502;2023-05-23T12:43:11;100216.28;;;24.93;74.40
2268;BME280;11052;43.338;25.502;2023-05-23T12:45:38;100213.78;;;25.11;71.88
2268;BME280;11052;43.338;25.502;2023-05-23T12:48:05;100225.88;;;25.33;68.64
2268;BME280;11052;43.338;25.502;2023-05-23T12:50:33;100227.13;;;25.38;69.42
2268;BME280;11052;43.338;25.502;2023-05-23T12:53:00;100217.56;;;25.55;68.93
2268;BME280;11052;43.338;25.502;2023-05-23T12:55:27;100215.72;;;25.75;70.54